createdAt,value
2022-10-22T00:01:47.076Z,13.80
2022-10-22T00:04:15.695Z,13.83
2022-10-22T00:06:45.135Z,13.76
2022-10-22T00:09:13.873Z,13.74
2022-10-22T00:11:43.120Z,13.77
2022-10-22T00:14:12.135Z,13.71
2022-10-22T00:16:40.781Z,13.67
2022-10-22T00:19:11.169Z,13.64
2022-10-22T00:21:39.788Z,13.58
2022-10-22T00:24:08.568Z,13.54
2022-10-22T00:26:37.131Z,13.49
2022-10-22T00:29:06.005Z,13.50
2022-10-22T00:31:34.611Z,13.48
2022-10-22T00:34:03.667Z,13.52
2022-10-22T00:36:33.639Z,13.50
2022-10-22T00:39:02.313Z,13.45
2022-10-22T00:41:30.916Z,13.45
2022-10-22T00:44:01.765Z,13.48
2022-10-22T00:46:30.880Z,13.46
2022-10-22T00:49:00.626Z,13.46
2022-10-22T00:51:31.451Z,13.42
2022-10-22T00:54:05.049Z,13.41
2022-10-22T00:56:34.287Z,13.39
2022-10-22T00:59:03.426Z,13.36
2022-10-22T01:01:33.088Z,13.37
2022-10-22T01:04:01.908Z,13.37
2022-10-22T01:06:32.692Z,13.32
2022-10-22T01:09:10.960Z,13.34
2022-10-22T01:11:50.958Z,13.29
2022-10-22T01:14:24.120Z,13.28
2022-10-22T01:16:56.870Z,13.28
2022-10-22T01:19:41.901Z,13.29
2022-10-22T01:22:16.903Z,13.30
2022-10-22T01:24:54.803Z,13.30
2022-10-22T01:27:33.402Z,13.31
2022-10-22T01:30:05.760Z,13.32
2022-10-22T01:32:38.033Z,13.37
2022-10-22T01:35:09.852Z,13.36
2022-10-22T01:37:42.929Z,13.36
2022-10-22T01:40:12.269Z,13.32
2022-10-22T01:42:40.825Z,13.41
2022-10-22T01:45:15.268Z,13.38
2022-10-22T01:47:49.667Z,13.33
2022-10-22T01:50:29.023Z,13.32
2022-10-22T01:53:05.755Z,13.32
2022-10-22T01:55:41.070Z,13.24
2022-10-22T01:58:19.583Z,13.24
2022-10-22T02:01:00.828Z,13.28
2022-10-22T02:03:33.245Z,13.24
2022-10-22T02:06:05.647Z,13.28
2022-10-22T02:08:36.527Z,13.25
2022-10-22T02:11:06.251Z,13.23
2022-10-22T02:13:38.506Z,13.19
2022-10-22T02:16:11.043Z,13.16
2022-10-22T02:18:41.736Z,13.12
2022-10-22T02:21:10.640Z,13.13
2022-10-22T02:23:39.727Z,13.11
2022-10-22T02:26:12.826Z,13.12
2022-10-22T02:28:46.611Z,13.07
2022-10-22T02:31:20.367Z,13.04
2022-10-22T02:33:51.403Z,13.09
2022-10-22T02:36:20.400Z,13.09
2022-10-22T02:38:50.928Z,13.07
2022-10-22T02:41:19.805Z,13.08
2022-10-22T02:43:51.457Z,13.06
2022-10-22T02:46:21.545Z,13.05
2022-10-22T02:48:50.117Z,13.02
2022-10-22T02:51:18.677Z,13.03
2022-10-22T02:53:47.257Z,13.07
2022-10-22T02:56:15.733Z,13.06
2022-10-22T02:58:44.285Z,13.07
2022-10-22T03:01:15.386Z,13.05
2022-10-22T03:03:46.244Z,13.03
2022-10-22T03:06:15.151Z,13.05
2022-10-22T03:08:44.530Z,13.08
2022-10-22T03:11:13.132Z,13.10
2022-10-22T03:13:41.738Z,13.11
2022-10-22T03:16:10.350Z,13.09
2022-10-22T03:18:38.913Z,13.04
2022-10-22T03:21:11.596Z,13.03
2022-10-22T03:23:41.162Z,12.97
2022-10-22T03:26:10.278Z,12.95
2022-10-22T03:28:39.454Z,12.92
2022-10-22T03:31:08.077Z,12.91
2022-10-22T03:33:36.633Z,12.90
2022-10-22T03:36:05.725Z,12.93
2022-10-22T03:38:36.332Z,12.96
2022-10-22T03:41:05.052Z,12.97
2022-10-22T03:43:35.194Z,12.98
2022-10-22T03:46:03.776Z,12.95
2022-10-22T03:48:32.333Z,12.95
2022-10-22T03:51:00.937Z,12.96
2022-10-22T03:53:29.530Z,12.98
2022-10-22T03:55:59.483Z,13.04
2022-10-22T03:58:28.052Z,13.03
2022-10-22T04:00:56.632Z,13.02
2022-10-22T04:03:25.308Z,12.97
2022-10-22T04:05:53.899Z,12.97
2022-10-22T04:08:22.805Z,13.02
2022-10-22T04:10:54.522Z,13.02
2022-10-22T04:13:24.507Z,12.95
2022-10-22T04:15:53.441Z,12.97
2022-10-22T04:18:22.828Z,12.94
2022-10-22T04:20:53.180Z,12.90
2022-10-22T04:23:21.934Z,12.90
2022-10-22T04:25:50.495Z,12.86
2022-10-22T04:28:19.055Z,12.91
2022-10-22T04:30:49.003Z,12.85
2022-10-22T04:33:17.594Z,12.80
2022-10-22T04:35:46.215Z,12.74
2022-10-22T04:38:14.909Z,12.82
2022-10-22T04:40:43.517Z,12.80
2022-10-22T04:43:12.100Z,12.84
2022-10-22T04:45:40.709Z,12.84
2022-10-22T04:48:10.886Z,12.87
2022-10-22T04:50:39.437Z,12.90
2022-10-22T04:53:08.002Z,12.78
2022-10-22T04:55:36.666Z,12.74
2022-10-22T04:58:05.451Z,12.69
2022-10-22T05:00:34.052Z,12.70
2022-10-22T05:03:02.617Z,12.69
2022-10-22T05:05:33.511Z,12.63
2022-10-22T05:08:02.085Z,12.61
2022-10-22T05:10:30.738Z,12.59
2022-10-22T05:12:59.298Z,12.58
2022-10-22T05:15:27.851Z,12.57
2022-10-22T05:17:56.452Z,12.65
2022-10-22T05:20:25.012Z,12.65
2022-10-22T05:22:54.912Z,12.64
2022-10-22T05:25:23.461Z,12.76
2022-10-22T05:27:52.020Z,12.79
2022-10-22T05:30:20.561Z,12.79
2022-10-22T05:32:49.145Z,12.70
2022-10-22T05:35:17.717Z,12.68
2022-10-22T05:37:46.372Z,12.63
2022-10-22T05:40:26.521Z,12.59
2022-10-22T05:42:55.638Z,12.60
2022-10-22T05:45:24.204Z,12.53
2022-10-22T05:47:52.749Z,12.70
2022-10-22T05:50:21.369Z,12.66
2022-10-22T05:52:49.925Z,12.67
2022-10-22T05:55:19.861Z,12.64
2022-10-22T05:57:50.355Z,12.58
2022-10-22T06:00:19.121Z,12.60
2022-10-22T06:02:50.855Z,12.58
2022-10-22T06:05:19.412Z,12.56
2022-10-22T06:07:48.099Z,12.55
2022-10-22T06:10:18.687Z,12.69
2022-10-22T06:12:49.545Z,12.67
2022-10-22T06:15:20.133Z,12.67
2022-10-22T06:17:49.080Z,12.65
2022-10-22T06:20:17.894Z,12.69
2022-10-22T06:22:48.151Z,12.68
2022-10-22T06:25:16.970Z,12.63
2022-10-22T06:27:45.576Z,12.67
2022-10-22T06:30:15.804Z,12.73
2022-10-22T06:32:44.494Z,12.74
2022-10-22T06:35:13.121Z,12.71
2022-10-22T06:37:41.998Z,12.74
2022-10-22T06:40:11.983Z,12.77
2022-10-22T06:42:40.763Z,12.82
2022-10-22T06:45:11.218Z,12.73
2022-10-22T06:47:41.431Z,12.72
2022-10-22T06:50:10.860Z,12.81
2022-10-22T06:52:39.435Z,12.80
2022-10-22T06:55:08.389Z,12.85
2022-10-22T06:57:38.197Z,12.79
2022-10-22T07:00:08.455Z,12.72
2022-10-22T07:02:37.049Z,12.78
2022-10-22T07:05:08.242Z,12.78
2022-10-22T07:07:37.202Z,12.80
2022-10-22T07:10:07.352Z,12.81
2022-10-22T07:12:35.964Z,12.81
2022-10-22T07:15:04.955Z,12.89
2022-10-22T07:17:33.562Z,12.89
2022-10-22T07:20:02.173Z,12.90
2022-10-22T07:22:32.735Z,13.01
2022-10-22T07:25:05.237Z,13.00
2022-10-22T07:27:36.010Z,13.02
2022-10-22T07:30:05.236Z,13.06
2022-10-22T07:32:33.840Z,13.03
2022-10-22T07:35:02.434Z,13.04
2022-10-22T07:37:32.401Z,13.05
2022-10-22T07:40:03.764Z,13.06
2022-10-22T07:42:32.887Z,13.08
2022-10-22T07:45:01.458Z,13.12
2022-10-22T07:47:30.037Z,13.18
2022-10-22T07:49:58.596Z,13.23
2022-10-22T07:52:27.184Z,13.26
2022-10-22T07:54:57.139Z,13.33
2022-10-22T07:57:25.857Z,13.30
2022-10-22T07:59:56.404Z,13.30
2022-10-22T08:02:25.007Z,13.36
2022-10-22T08:04:53.567Z,13.38
2022-10-22T08:07:22.165Z,13.43
2022-10-22T08:09:50.830Z,13.47
2022-10-22T08:12:21.608Z,13.52
2022-10-22T08:14:50.180Z,13.59
2022-10-22T08:17:18.791Z,13.66
2022-10-22T08:19:47.407Z,13.61
2022-10-22T08:22:15.973Z,13.63
2022-10-22T08:24:44.623Z,13.71
2022-10-22T08:27:13.483Z,13.77
2022-10-22T08:29:43.445Z,13.76
2022-10-22T08:32:12.341Z,13.76
2022-10-22T08:34:41.167Z,13.89
2022-10-22T08:37:14.101Z,14.09
2022-10-22T08:39:42.729Z,14.05
2022-10-22T08:42:29.623Z,14.10
2022-10-22T08:45:05.217Z,14.06
2022-10-22T08:47:45.443Z,14.12
2022-10-22T08:50:17.915Z,14.15
2022-10-22T08:52:50.316Z,14.27
2022-10-22T08:55:19.049Z,14.18
2022-10-22T08:57:52.732Z,14.13
2022-10-22T09:00:25.953Z,14.17
2022-10-22T09:03:03.817Z,14.12
2022-10-22T09:05:42.226Z,14.21
2022-10-22T09:08:11.987Z,14.20
2022-10-22T09:10:44.773Z,14.29
2022-10-22T09:13:16.064Z,14.37
2022-10-22T09:15:47.355Z,14.39
2022-10-22T09:18:25.401Z,14.50
2022-10-22T09:20:57.073Z,14.64
2022-10-22T09:23:32.069Z,14.84
2022-10-22T09:26:01.284Z,14.97
2022-10-22T09:28:29.877Z,14.97
2022-10-22T09:30:59.799Z,15.11
2022-10-22T09:33:30.784Z,15.20
2022-10-22T09:36:03.401Z,15.25
2022-10-22T09:38:34.627Z,15.31
2022-10-22T09:41:03.733Z,15.41
2022-10-22T09:43:32.960Z,15.46
2022-10-22T09:46:04.562Z,15.49
2022-10-22T09:48:35.230Z,15.56
2022-10-22T09:51:07.440Z,15.64
2022-10-22T09:53:42.557Z,15.69
2022-10-22T09:56:20.018Z,15.74
2022-10-22T09:58:51.837Z,15.88
2022-10-22T10:01:24.089Z,15.98
2022-10-22T10:03:52.656Z,16.09
2022-10-22T10:06:22.755Z,16.21
2022-10-22T10:08:51.514Z,16.25
2022-10-22T10:11:29.083Z,16.35
2022-10-22T10:14:09.368Z,16.34
2022-10-22T10:16:46.467Z,16.45
2022-10-22T10:19:29.180Z,16.55
2022-10-22T10:22:05.497Z,16.60
2022-10-22T10:24:46.509Z,16.70
2022-10-22T10:27:21.864Z,16.82
2022-10-22T10:29:55.169Z,16.95
2022-10-22T10:32:35.308Z,17.05
2022-10-22T10:35:12.517Z,17.06
2022-10-22T10:37:44.985Z,17.20
2022-10-22T10:40:22.696Z,17.40
2022-10-22T10:42:54.626Z,17.52
2022-10-22T10:45:27.643Z,17.70
2022-10-22T10:48:11.541Z,17.72
2022-10-22T10:50:45.901Z,17.91
2022-10-22T10:53:19.111Z,18.05
2022-10-22T10:55:56.006Z,18.17
2022-10-22T10:58:31.772Z,18.28
2022-10-22T11:01:04.168Z,18.29
2022-10-22T11:03:42.225Z,18.34
2022-10-22T11:06:12.518Z,18.29
2022-10-22T11:08:45.419Z,18.45
2022-10-22T11:11:17.862Z,18.46
2022-10-22T11:13:50.735Z,18.62
2022-10-22T11:16:22.685Z,18.75
2022-10-22T11:18:56.192Z,18.84
2022-10-22T11:21:29.606Z,19.00
2022-10-22T11:24:03.693Z,19.10
2022-10-22T11:26:38.757Z,19.08
2022-10-22T11:29:12.288Z,18.79
2022-10-22T11:31:41.917Z,18.67
2022-10-22T11:34:33.165Z,18.45
2022-10-22T11:37:02.581Z,18.21
2022-10-22T11:39:40.260Z,18.07
2022-10-22T11:42:12.357Z,18.08
2022-10-22T11:45:00.530Z,18.22
2022-10-22T11:47:31.133Z,18.34
2022-10-22T11:50:17.988Z,18.44
2022-10-22T11:53:01.386Z,18.69
2022-10-22T11:55:36.387Z,18.80
2022-10-22T11:58:28.163Z,18.97
2022-10-22T12:00:57.853Z,19.12
2022-10-22T12:03:41.067Z,19.34
2022-10-22T12:06:20.889Z,19.41
2022-10-22T12:08:55.133Z,19.37
2022-10-22T12:11:26.351Z,19.48
2022-10-22T12:14:03.492Z,19.62
2022-10-22T12:16:55.181Z,19.67
2022-10-22T12:19:31.067Z,19.52
2022-10-22T12:22:04.210Z,19.43
2022-10-22T12:24:36.548Z,19.30
2022-10-22T12:27:08.214Z,19.14
2022-10-22T12:29:37.320Z,19.07
2022-10-22T12:32:06.340Z,18.95
2022-10-22T12:34:34.921Z,18.86
2022-10-22T12:37:05.687Z,18.76
2022-10-22T12:39:35.398Z,18.71
2022-10-22T12:42:06.051Z,18.72
2022-10-22T12:44:34.646Z,18.80
2022-10-22T12:47:03.262Z,18.89
2022-10-22T12:49:36.683Z,18.85
2022-10-22T12:52:12.046Z,18.89
2022-10-22T12:54:42.793Z,18.86
2022-10-22T12:57:14.883Z,18.78
2022-10-22T12:59:48.774Z,18.62
2022-10-22T13:02:22.439Z,18.67
2022-10-22T13:05:22.451Z,18.79
2022-10-22T13:07:54.722Z,18.91
2022-10-22T13:10:26.464Z,19.10
2022-10-22T13:12:57.027Z,19.16
2022-10-22T13:15:36.828Z,19.22
2022-10-22T13:18:08.473Z,19.26
2022-10-22T13:20:38.452Z,19.33
2022-10-22T13:23:20.237Z,19.30
2022-10-22T13:25:58.718Z,19.29
2022-10-22T13:28:28.045Z,19.29
2022-10-22T13:30:58.828Z,19.37
2022-10-22T13:33:30.901Z,19.38
2022-10-22T13:35:59.493Z,19.39
2022-10-22T13:38:30.284Z,19.41
2022-10-22T13:40:59.360Z,19.36
2022-10-22T13:43:28.072Z,19.36
2022-10-22T13:45:59.262Z,19.32
2022-10-22T13:48:29.405Z,19.24
2022-10-22T13:50:58.037Z,19.18
2022-10-22T13:53:29.486Z,19.12
2022-10-22T13:55:58.326Z,19.01
2022-10-22T13:58:26.891Z,18.96
2022-10-22T14:00:57.646Z,18.91
2022-10-22T14:03:28.301Z,18.96
2022-10-22T14:05:57.199Z,18.99
2022-10-22T14:08:26.717Z,18.94
2022-10-22T14:10:56.693Z,18.94
2022-10-22T14:13:26.546Z,18.93
2022-10-22T14:15:55.194Z,18.85
2022-10-22T14:18:28.579Z,18.74
2022-10-22T14:20:59.843Z,18.68
2022-10-22T14:23:29.927Z,18.65
2022-10-22T14:26:00.546Z,18.61
2022-10-22T14:28:31.356Z,18.65
2022-10-22T14:31:00.184Z,18.60
2022-10-22T14:33:32.135Z,18.55
2022-10-22T14:36:01.223Z,18.50
2022-10-22T14:38:30.344Z,18.43
2022-10-22T14:41:00.706Z,18.37
2022-10-22T14:43:31.058Z,18.32
2022-10-22T14:45:59.690Z,18.30
2022-10-22T14:48:28.273Z,18.31
2022-10-22T14:50:56.829Z,18.29
2022-10-22T14:53:25.390Z,18.26
2022-10-22T14:55:57.537Z,18.22
2022-10-22T14:58:27.565Z,18.17
2022-10-22T15:00:56.195Z,18.13
2022-10-22T15:03:24.803Z,18.07
2022-10-22T15:05:55.716Z,18.01
2022-10-22T15:08:24.454Z,18.01
2022-10-22T15:10:59.983Z,17.97
2022-10-22T15:13:30.306Z,17.93
2022-10-22T15:15:59.773Z,17.89
2022-10-22T15:18:28.925Z,17.84
2022-10-22T15:20:59.020Z,17.83
2022-10-22T15:23:28.035Z,17.77
2022-10-22T15:25:56.741Z,17.71
2022-10-22T15:28:25.902Z,17.67
2022-10-22T15:30:57.238Z,17.64
2022-10-22T15:33:26.405Z,17.66
2022-10-22T15:35:55.104Z,17.64
2022-10-22T15:41:05.289Z,17.66
2022-10-22T15:43:34.607Z,17.63
2022-10-22T15:46:15.536Z,17.54
2022-10-22T15:48:44.285Z,17.39
2022-10-22T15:51:15.664Z,17.28
2022-10-22T15:53:44.994Z,17.17
2022-10-22T15:56:13.579Z,17.08
2022-10-22T15:58:42.185Z,16.98
2022-10-22T16:01:13.030Z,16.84
2022-10-22T16:03:43.966Z,16.73
2022-10-22T16:06:12.569Z,16.65
2022-10-22T16:08:41.230Z,16.55
2022-10-22T16:11:10.642Z,16.45
2022-10-22T16:13:39.216Z,16.33
2022-10-22T16:16:08.921Z,16.28
2022-10-22T16:18:37.512Z,16.23
2022-10-22T16:21:07.549Z,16.14
2022-10-22T16:23:36.113Z,16.09
2022-10-22T16:26:04.751Z,16.03
2022-10-22T16:31:06.021Z,15.89
2022-10-22T16:33:41.401Z,15.79
2022-10-22T16:36:16.462Z,15.74
2022-10-22T16:38:45.321Z,15.69
2022-10-22T16:41:15.328Z,15.63
2022-10-22T16:43:45.342Z,15.58
2022-10-22T16:46:13.977Z,15.50
2022-10-22T16:48:47.788Z,15.44
2022-10-22T16:51:19.659Z,15.35
2022-10-22T16:53:48.426Z,15.31
2022-10-22T16:56:18.034Z,15.32
2022-10-22T16:58:48.164Z,15.40
2022-10-22T17:01:18.286Z,15.43
2022-10-22T17:03:47.278Z,15.37
2022-10-22T17:06:17.280Z,15.33
2022-10-22T17:08:45.934Z,15.29
2022-10-22T17:11:17.550Z,15.25
2022-10-22T17:13:46.949Z,15.32
2022-10-22T17:16:17.032Z,15.39
2022-10-22T17:21:21.973Z,15.36
2022-10-22T17:23:55.432Z,15.29
2022-10-22T17:26:26.340Z,15.30
2022-10-22T17:28:55.173Z,15.25
2022-10-22T17:31:25.005Z,15.22
2022-10-22T17:33:55.051Z,15.17
2022-10-22T17:36:25.612Z,15.13
2022-10-22T17:38:55.912Z,15.12
2022-10-22T17:41:27.654Z,15.10
2022-10-22T17:43:56.729Z,15.10
2022-10-22T17:46:26.480Z,15.01
2022-10-22T17:48:56.459Z,14.96
2022-10-22T17:51:27.865Z,14.93
2022-10-22T17:53:56.519Z,14.88
2022-10-22T17:56:27.585Z,14.83
2022-10-22T17:58:56.693Z,14.88
2022-10-22T18:01:26.808Z,14.86
2022-10-22T18:03:56.501Z,14.91
2022-10-22T18:06:26.419Z,14.86
2022-10-22T18:08:55.045Z,14.85
2022-10-22T18:11:26.561Z,14.82
2022-10-22T18:13:56.743Z,14.79
2022-10-22T18:16:26.185Z,14.73
2022-10-22T18:18:55.706Z,14.70
2022-10-22T18:21:27.386Z,14.67
2022-10-22T18:23:56.576Z,14.59
2022-10-22T18:26:26.913Z,14.49
2022-10-22T18:28:56.114Z,14.43
2022-10-22T18:31:30.244Z,14.36
2022-10-22T18:33:58.844Z,14.31
2022-10-22T18:36:29.021Z,14.28
2022-10-22T18:38:59.631Z,14.19
2022-10-22T18:41:29.148Z,14.18
2022-10-22T18:43:59.192Z,14.07
2022-10-22T18:46:28.453Z,14.04
2022-10-22T18:48:58.382Z,14.00
2022-10-22T18:51:31.558Z,13.94
2022-10-22T18:54:22.269Z,13.90
2022-10-22T18:56:49.077Z,13.84
2022-10-22T18:59:20.704Z,13.79
2022-10-22T19:01:49.414Z,13.75
2022-10-22T19:04:17.997Z,13.71
2022-10-22T19:06:48.234Z,13.68
2022-10-22T19:09:17.155Z,13.67
2022-10-22T19:11:46.231Z,13.66
2022-10-22T19:14:19.400Z,13.64
2022-10-22T19:16:48.075Z,13.62
2022-10-22T19:19:19.064Z,13.61
2022-10-22T19:21:49.533Z,13.68
2022-10-22T19:24:19.791Z,13.67
2022-10-22T19:26:49.704Z,13.68
2022-10-22T19:29:19.706Z,13.63
2022-10-22T19:31:50.856Z,13.60
2022-10-22T19:34:20.048Z,13.51
2022-10-22T19:36:51.580Z,13.52
2022-10-22T19:39:20.768Z,13.44
2022-10-22T19:41:49.434Z,13.53
2022-10-22T19:44:19.693Z,13.52
2022-10-22T19:46:48.354Z,13.50
2022-10-22T19:49:19.098Z,13.46
2022-10-22T19:51:52.162Z,13.45
2022-10-22T19:54:20.965Z,13.39
2022-10-22T19:56:50.559Z,13.39
2022-10-22T19:59:20.578Z,13.40
2022-10-22T20:01:49.265Z,13.32
2022-10-22T20:04:19.196Z,13.27
2022-10-22T20:06:48.386Z,13.31
2022-10-22T20:09:18.414Z,13.46
2022-10-22T20:11:47.398Z,13.30
2022-10-22T20:14:16.051Z,13.20
2022-10-22T20:16:44.750Z,13.13
2022-10-22T20:19:16.062Z,13.08
2022-10-22T20:21:45.326Z,13.09
2022-10-22T20:24:14.019Z,13.08
2022-10-22T20:26:46.118Z,13.07
2022-10-22T20:29:15.561Z,13.03
2022-10-22T20:31:44.137Z,13.05
2022-10-22T20:34:12.874Z,13.09
2022-10-22T20:36:41.510Z,13.05
2022-10-22T20:39:13.078Z,13.04
2022-10-22T20:41:41.865Z,12.97
2022-10-22T20:44:14.405Z,12.92
2022-10-22T20:46:43.680Z,12.84
2022-10-22T20:49:15.032Z,12.78
2022-10-22T20:51:44.010Z,12.76
2022-10-22T20:54:13.001Z,12.89
2022-10-22T20:56:42.272Z,12.88
2022-10-22T20:59:12.772Z,12.85
2022-10-22T21:01:42.710Z,12.79
2022-10-22T21:04:11.921Z,12.80
2022-10-22T21:06:42.798Z,12.73
2022-10-22T21:09:12.506Z,12.74
2022-10-22T21:11:42.562Z,12.75
2022-10-22T21:14:14.698Z,12.86
2022-10-22T21:16:44.151Z,12.82
2022-10-22T21:19:13.021Z,12.75
2022-10-22T21:21:41.732Z,12.72
2022-10-22T21:24:10.435Z,12.80
2022-10-22T21:26:39.650Z,12.82
2022-10-22T21:29:08.446Z,12.75
2022-10-22T21:31:40.225Z,12.62
2022-10-22T21:34:08.816Z,12.67
2022-10-22T21:36:37.498Z,12.56
2022-10-22T21:39:06.644Z,12.50
2022-10-22T21:41:35.259Z,12.46
2022-10-22T21:44:03.982Z,12.40
2022-10-22T21:46:32.602Z,12.40
2022-10-22T21:49:03.609Z,12.38
2022-10-22T21:51:35.158Z,12.36
2022-10-22T21:54:03.771Z,12.37
2022-10-22T21:56:33.865Z,12.38
2022-10-22T21:59:03.290Z,12.37
2022-10-22T22:01:31.941Z,12.34
2022-10-22T22:04:02.474Z,12.31
2022-10-22T22:06:33.412Z,12.29
2022-10-22T22:09:03.431Z,12.31
2022-10-22T22:11:32.090Z,12.22
2022-10-22T22:14:00.726Z,12.17
2022-10-22T22:16:31.384Z,12.14
2022-10-22T22:19:05.840Z,12.13
2022-10-22T22:21:35.234Z,12.16
2022-10-22T22:24:04.089Z,12.18
2022-10-22T22:26:33.109Z,12.19
2022-10-22T22:29:01.788Z,12.24
2022-10-22T22:31:32.574Z,12.19
2022-10-22T22:34:03.710Z,12.18
2022-10-22T22:36:35.363Z,12.11
2022-10-22T22:39:04.865Z,12.01
2022-10-22T22:41:33.786Z,11.96
2022-10-22T22:44:02.489Z,11.91
2022-10-22T22:46:31.088Z,11.83
2022-10-22T22:48:59.667Z,11.81
2022-10-22T22:51:29.565Z,11.85
2022-10-22T22:53:58.203Z,11.79
2022-10-22T22:56:28.667Z,11.76
2022-10-22T22:58:57.542Z,11.79
2022-10-22T23:01:28.218Z,11.82
2022-10-22T23:03:58.537Z,11.82
2022-10-22T23:06:29.578Z,11.88
2022-10-22T23:08:58.829Z,11.82
2022-10-22T23:11:28.332Z,11.78
2022-10-22T23:13:58.380Z,11.73
2022-10-22T23:16:28.808Z,11.67
2022-10-22T23:18:57.953Z,11.63
2022-10-22T23:21:29.971Z,11.66
2022-10-22T23:24:00.676Z,11.70
2022-10-22T23:26:31.398Z,11.71
2022-10-22T23:29:01.587Z,11.71
2022-10-22T23:31:30.641Z,11.70
2022-10-22T23:33:59.258Z,11.70
2022-10-22T23:36:30.099Z,11.66
2022-10-22T23:38:58.645Z,11.70
2022-10-22T23:41:27.274Z,11.62
2022-10-22T23:43:55.851Z,11.63
2022-10-22T23:46:24.433Z,11.56
2022-10-22T23:48:53.674Z,11.47
2022-10-22T23:51:22.553Z,11.47
2022-10-22T23:53:57.128Z,11.48
2022-10-22T23:56:26.125Z,11.47
2022-10-22T23:58:55.180Z,11.40
